createdAt,value
2017-05-06T00:02:25.025Z,7.90
2017-05-06T00:04:54.061Z,8.20
2017-05-06T00:07:23.121Z,8.20
2017-05-06T00:09:52.165Z,8.20
2017-05-06T00:12:21.956Z,7.90
2017-05-06T00:14:51.642Z,8.20
2017-05-06T00:17:20.673Z,7.90
2017-05-06T00:19:50.562Z,7.80
2017-05-06T00:22:19.606Z,8.00
2017-05-06T00:24:48.657Z,8.00
2017-05-06T00:27:17.769Z,7.90
2017-05-06T00:29:46.810Z,8.00
2017-05-06T00:32:15.844Z,8.00
2017-05-06T00:34:44.900Z,7.80
2017-05-06T00:37:14.032Z,8.00
2017-05-06T00:39:43.079Z,7.80
2017-05-06T00:42:12.109Z,8.10
2017-05-06T00:44:41.154Z,7.90
2017-05-06T00:47:10.190Z,7.90
2017-05-06T00:49:39.238Z,7.90
2017-05-06T00:52:08.306Z,7.80
2017-05-06T00:54:38.105Z,8.00
2017-05-06T00:57:07.137Z,8.00
2017-05-06T00:59:36.182Z,8.20
2017-05-06T01:02:05.344Z,7.80
2017-05-06T01:04:34.394Z,8.20
2017-05-06T01:07:04.203Z,7.90
2017-05-06T01:09:33.248Z,7.90
2017-05-06T01:12:02.289Z,7.90
2017-05-06T01:14:32.118Z,8.20
2017-05-06T01:17:01.891Z,8.10
2017-05-06T01:19:30.934Z,7.90
2017-05-06T01:21:59.989Z,8.40
2017-05-06T01:24:29.022Z,8.50
2017-05-06T01:26:58.201Z,8.10
2017-05-06T01:29:27.998Z,8.10
2017-05-06T01:31:57.045Z,8.40
2017-05-06T01:34:26.076Z,8.10
2017-05-06T01:36:55.122Z,8.50
2017-05-06T01:39:24.157Z,8.50
2017-05-06T01:41:53.218Z,8.20
2017-05-06T01:44:22.247Z,8.40
2017-05-06T01:46:51.358Z,8.50
2017-05-06T01:49:21.199Z,8.40
2017-05-06T01:51:50.269Z,8.20
2017-05-06T01:54:20.070Z,8.40
2017-05-06T01:56:49.126Z,8.50
2017-05-06T01:59:18.161Z,8.20
2017-05-06T02:01:47.268Z,8.40
2017-05-06T02:04:17.054Z,8.20
2017-05-06T02:06:46.093Z,8.40
2017-05-06T02:09:15.145Z,8.40
2017-05-06T02:11:44.181Z,8.20
2017-05-06T02:14:13.361Z,8.10
2017-05-06T02:16:43.145Z,8.10
2017-05-06T02:19:12.273Z,8.10
2017-05-06T02:21:41.306Z,8.20
2017-05-06T02:24:10.366Z,7.90
2017-05-06T02:26:39.434Z,7.80
2017-05-06T02:29:08.494Z,8.00
2017-05-06T02:31:37.552Z,8.00
2017-05-06T02:34:06.605Z,8.10
2017-05-06T02:36:35.654Z,7.90
2017-05-06T02:39:04.689Z,7.80
2017-05-06T02:41:33.749Z,8.10
2017-05-06T02:44:02.893Z,7.50
2017-05-06T02:46:31.993Z,7.70
2017-05-06T02:49:01.020Z,7.50
2017-05-06T02:51:30.090Z,7.50
2017-05-06T02:53:59.921Z,7.50
2017-05-06T02:56:29.816Z,7.50
2017-05-06T02:58:59.605Z,7.50
2017-05-06T03:01:28.689Z,7.40
2017-05-06T03:03:57.723Z,7.50
2017-05-06T03:06:27.638Z,7.60
2017-05-06T03:08:56.653Z,7.20
2017-05-06T03:11:25.833Z,7.10
2017-05-06T03:13:55.616Z,7.20
2017-05-06T03:16:24.636Z,7.10
2017-05-06T03:18:53.693Z,7.10
2017-05-06T03:21:22.731Z,6.90
2017-05-06T03:23:51.784Z,7.00
2017-05-06T03:26:20.821Z,6.80
2017-05-06T03:28:49.905Z,6.80
2017-05-06T03:31:18.952Z,7.10
2017-05-06T03:33:48.046Z,7.20
2017-05-06T03:36:17.086Z,7.10
2017-05-06T03:38:46.992Z,7.00
2017-05-06T03:41:16.763Z,7.00
2017-05-06T03:43:45.813Z,7.00
2017-05-06T03:46:14.857Z,7.10
2017-05-06T03:48:43.906Z,7.40
2017-05-06T03:51:12.945Z,7.10
2017-05-06T03:53:42.021Z,7.10
2017-05-06T03:56:11.053Z,7.10
2017-05-06T03:58:40.101Z,7.20
2017-05-06T04:01:09.141Z,7.10
2017-05-06T04:03:38.209Z,7.20
2017-05-06T04:06:07.236Z,7.20
2017-05-06T04:08:37.050Z,7.30
2017-05-06T04:11:06.824Z,7.20
2017-05-06T04:13:35.901Z,7.10
2017-05-06T04:16:04.925Z,7.20
2017-05-06T04:18:33.965Z,7.40
2017-05-06T04:21:03.046Z,7.30
2017-05-06T04:23:32.058Z,7.20
2017-05-06T04:26:01.112Z,7.40
2017-05-06T04:28:30.147Z,7.50
2017-05-06T04:30:59.230Z,7.60
2017-05-06T04:33:29.001Z,7.50
2017-05-06T04:35:58.053Z,7.50
2017-05-06T04:38:27.094Z,7.80
2017-05-06T04:40:56.149Z,7.40
2017-05-06T04:43:25.201Z,7.50
2017-05-06T04:45:54.249Z,7.50
2017-05-06T04:48:23.296Z,7.40
2017-05-06T04:50:53.078Z,7.40
2017-05-06T04:53:22.110Z,7.40
2017-05-06T04:55:51.157Z,7.40
2017-05-06T04:58:20.193Z,7.50
2017-05-06T05:00:49.985Z,7.40
2017-05-06T05:03:19.028Z,7.50
2017-05-06T05:05:48.075Z,7.50
2017-05-06T05:08:17.110Z,7.60
2017-05-06T05:10:46.189Z,7.80
2017-05-06T05:13:15.237Z,7.80
2017-05-06T05:15:44.303Z,8.10
2017-05-06T05:18:13.336Z,8.10
2017-05-06T05:20:42.440Z,7.80
2017-05-06T05:23:12.240Z,7.80
2017-05-06T05:25:41.278Z,8.20
2017-05-06T05:28:11.332Z,8.10
2017-05-06T05:30:40.458Z,7.90
2017-05-06T05:33:09.522Z,7.90
2017-05-06T05:35:38.579Z,7.80
2017-05-06T05:38:07.630Z,8.40
2017-05-06T05:40:36.689Z,8.20
2017-05-06T05:43:05.722Z,8.30
2017-05-06T05:45:34.768Z,8.10
2017-05-06T05:48:03.813Z,8.50
2017-05-06T05:50:32.864Z,8.30
2017-05-06T05:53:01.921Z,8.20
2017-05-06T05:55:31.729Z,8.30
2017-05-06T05:58:01.508Z,8.50
2017-05-06T06:00:30.545Z,8.50
2017-05-06T06:02:59.612Z,8.90
2017-05-06T06:05:28.727Z,8.70
2017-05-06T06:07:58.505Z,9.20
2017-05-06T06:10:27.546Z,9.00
2017-05-06T06:12:56.593Z,9.20
2017-05-06T06:15:25.658Z,9.20
2017-05-06T06:17:54.690Z,9.20
2017-05-06T06:20:23.736Z,9.00
2017-05-06T06:22:52.799Z,9.20
2017-05-06T06:25:21.845Z,9.50
2017-05-06T06:27:50.883Z,9.60
2017-05-06T06:30:20.669Z,9.90
2017-05-06T06:32:49.697Z,9.60
2017-05-06T06:35:18.745Z,9.60
2017-05-06T06:37:47.779Z,9.50
2017-05-06T06:40:17.577Z,9.90
2017-05-06T06:42:46.609Z,9.80
2017-05-06T06:45:15.649Z,9.70
2017-05-06T06:47:45.449Z,9.80
2017-05-06T06:50:14.501Z,9.90
2017-05-06T06:52:43.529Z,9.90
2017-05-06T06:55:12.586Z,9.90
2017-05-06T06:57:41.618Z,9.80
2017-05-06T07:00:10.677Z,10.50
2017-05-06T07:02:39.738Z,10.30
2017-05-06T07:05:09.537Z,10.40
2017-05-06T07:07:38.603Z,10.90
2017-05-06T07:10:07.662Z,10.90
2017-05-06T07:12:36.780Z,11.00
2017-05-06T07:15:06.245Z,11.00
2017-05-06T07:17:36.047Z,11.50
2017-05-06T07:20:05.854Z,11.30
2017-05-06T07:22:34.990Z,11.60
2017-05-06T07:25:04.052Z,11.70
2017-05-06T07:27:33.868Z,11.60
2017-05-06T07:30:03.674Z,11.60
2017-05-06T07:32:33.479Z,11.70
2017-05-06T07:35:02.532Z,11.60
2017-05-06T07:37:31.595Z,12.10
2017-05-06T07:40:00.801Z,12.00
2017-05-06T07:42:29.858Z,12.20
2017-05-06T07:44:58.907Z,12.60
2017-05-06T07:47:27.966Z,12.60
2017-05-06T07:49:57.027Z,12.60
2017-05-06T07:52:26.095Z,12.70
2017-05-06T07:54:55.220Z,13.60
2017-05-06T07:57:24.305Z,14.00
2017-05-06T07:59:53.391Z,14.50
2017-05-06T08:02:22.445Z,15.30
2017-05-06T08:04:51.534Z,16.00
2017-05-06T08:07:20.579Z,16.50
2017-05-06T08:09:49.840Z,17.10
2017-05-06T08:12:18.893Z,17.40
2017-05-06T08:14:48.020Z,18.00
2017-05-06T08:17:17.043Z,18.40
2017-05-06T08:19:46.103Z,18.90
2017-05-06T08:22:15.205Z,19.00
2017-05-06T08:24:44.267Z,18.90
2017-05-06T08:27:13.385Z,19.10
2017-05-06T08:29:42.434Z,19.90
2017-05-06T08:32:11.475Z,19.60
2017-05-06T08:34:41.331Z,19.50
2017-05-06T08:37:10.388Z,19.50
2017-05-06T08:39:40.177Z,19.90
2017-05-06T08:42:09.227Z,20.40
2017-05-06T08:44:38.297Z,21.30
2017-05-06T08:47:07.357Z,21.00
2017-05-06T08:49:36.406Z,20.90
2017-05-06T08:52:05.462Z,21.00
2017-05-06T08:54:35.245Z,20.90
2017-05-06T08:57:04.321Z,21.10
2017-05-06T08:59:33.368Z,21.50
2017-05-06T09:02:03.159Z,21.70
2017-05-06T09:04:32.218Z,22.60
2017-05-06T09:07:01.296Z,22.50
2017-05-06T09:09:30.349Z,22.00
2017-05-06T09:11:59.421Z,22.40
2017-05-06T09:14:28.634Z,22.40
2017-05-06T09:16:57.672Z,23.10
2017-05-06T09:19:26.730Z,23.80
2017-05-06T09:21:56.513Z,24.60
2017-05-06T09:24:25.582Z,25.70
2017-05-06T09:26:54.689Z,25.20
2017-05-06T09:29:23.748Z,25.30
2017-05-06T09:31:52.805Z,26.10
2017-05-06T09:34:21.887Z,27.00
2017-05-06T09:36:50.917Z,27.90
2017-05-06T09:39:20.721Z,28.00
2017-05-06T09:41:50.541Z,27.70
2017-05-06T09:44:20.342Z,27.60
2017-05-06T09:46:49.374Z,27.20
2017-05-06T09:49:18.425Z,26.70
2017-05-06T09:51:47.485Z,26.60
2017-05-06T09:54:16.635Z,27.70
2017-05-06T09:56:46.425Z,28.20
2017-05-06T09:59:15.539Z,27.20
2017-05-06T10:01:44.577Z,26.80
2017-05-06T10:04:13.629Z,26.60
2017-05-06T10:06:43.425Z,26.80
2017-05-06T10:09:12.462Z,26.90
2017-05-06T10:11:41.573Z,27.60
2017-05-06T10:14:10.646Z,28.80
2017-05-06T10:16:39.713Z,28.80
2017-05-06T10:19:08.760Z,27.30
2017-05-06T10:21:37.829Z,27.00
2017-05-06T10:24:06.869Z,26.90
2017-05-06T10:26:36.693Z,26.90
2017-05-06T10:29:05.737Z,26.80
2017-05-06T10:31:34.785Z,25.80
2017-05-06T10:34:04.592Z,25.90
2017-05-06T10:36:33.636Z,25.50
2017-05-06T10:39:02.702Z,24.80
2017-05-06T10:41:32.481Z,25.70
2017-05-06T10:44:01.626Z,26.20
2017-05-06T10:46:30.701Z,26.50
2017-05-06T10:48:59.765Z,26.60
2017-05-06T10:51:28.819Z,27.10
2017-05-06T10:53:57.863Z,29.00
2017-05-06T10:56:26.924Z,30.40
2017-05-06T10:58:55.985Z,31.20
2017-05-06T11:01:25.018Z,31.60
2017-05-06T11:03:54.085Z,30.10
2017-05-06T11:06:23.154Z,27.80
2017-05-06T11:08:52.262Z,26.60
2017-05-06T11:11:21.346Z,25.70
2017-05-06T11:13:50.379Z,27.30
2017-05-06T11:16:19.433Z,29.60
2017-05-06T11:18:49.225Z,31.30
2017-05-06T11:21:18.731Z,30.80
2017-05-06T11:23:47.772Z,30.50
2017-05-06T11:26:16.842Z,31.20
2017-05-06T11:28:45.896Z,32.10
2017-05-06T11:31:14.954Z,32.50
2017-05-06T11:33:43.978Z,34.30
2017-05-06T11:36:13.042Z,33.50
2017-05-06T11:38:42.077Z,32.40
2017-05-06T11:41:11.130Z,31.80
2017-05-06T11:43:40.165Z,30.00
2017-05-06T11:46:09.247Z,29.20
2017-05-06T11:48:38.309Z,29.80
2017-05-06T11:51:07.349Z,29.70
2017-05-06T11:53:36.394Z,30.70
2017-05-06T11:56:05.460Z,30.80
2017-05-06T11:58:35.226Z,32.40
2017-05-06T12:01:04.273Z,32.70
2017-05-06T12:03:34.089Z,31.60
2017-05-06T12:06:03.865Z,32.30
2017-05-06T12:08:32.931Z,32.60
2017-05-06T12:11:01.965Z,32.50
2017-05-06T12:13:31.009Z,32.70
2017-05-06T12:16:00.058Z,33.10
2017-05-06T12:18:29.854Z,32.40
2017-05-06T12:20:58.891Z,32.80
2017-05-06T12:23:27.941Z,31.10
2017-05-06T12:25:56.978Z,31.10
2017-05-06T12:28:26.058Z,31.00
2017-05-06T12:30:55.835Z,30.90
2017-05-06T12:33:24.888Z,30.30
2017-05-06T12:35:53.922Z,30.60
2017-05-06T12:38:23.015Z,31.30
2017-05-06T12:40:52.084Z,31.80
2017-05-06T12:43:21.174Z,32.50
2017-05-06T12:45:50.216Z,31.80
2017-05-06T12:48:19.262Z,31.20
2017-05-06T12:50:48.304Z,31.50
2017-05-06T12:53:17.353Z,32.50
2017-05-06T12:55:46.406Z,32.60
2017-05-06T12:58:16.213Z,33.10
2017-05-06T13:00:45.989Z,33.70
2017-05-06T13:03:15.034Z,34.10
2017-05-06T13:05:44.101Z,34.20
2017-05-06T13:08:13.154Z,33.70
2017-05-06T13:10:42.202Z,33.20
2017-05-06T13:13:11.979Z,32.30
2017-05-06T13:15:41.049Z,33.20
2017-05-06T13:18:10.147Z,34.20
2017-05-06T13:20:39.210Z,33.30
2017-05-06T13:23:08.989Z,32.10
2017-05-06T13:25:38.048Z,32.60
2017-05-06T13:28:07.134Z,32.90
2017-05-06T13:30:36.194Z,32.40
2017-05-06T13:33:05.982Z,33.50
2017-05-06T13:35:35.049Z,33.40
2017-05-06T13:38:04.094Z,33.20
2017-05-06T13:40:33.893Z,32.90
2017-05-06T13:43:02.941Z,31.80
2017-05-06T13:45:32.010Z,31.70
2017-05-06T13:48:01.075Z,31.70
2017-05-06T13:50:30.120Z,31.70
2017-05-06T13:52:59.216Z,30.70
2017-05-06T13:55:28.375Z,30.50
2017-05-06T13:57:57.425Z,30.20
2017-05-06T14:00:26.605Z,31.00
2017-05-06T14:02:55.972Z,30.90
2017-05-06T14:05:24.993Z,31.40
2017-05-06T14:07:54.081Z,31.00
2017-05-06T14:10:23.126Z,31.70
2017-05-06T14:12:52.182Z,32.60
2017-05-06T14:15:21.237Z,32.80
2017-05-06T14:17:51.046Z,32.00
2017-05-06T14:20:20.814Z,32.40
2017-05-06T14:22:49.878Z,32.40
2017-05-06T14:25:18.931Z,32.90
2017-05-06T14:27:47.969Z,31.80
2017-05-06T14:30:17.021Z,32.20
2017-05-06T14:32:46.994Z,31.80
2017-05-06T14:35:16.049Z,32.10
2017-05-06T14:37:45.837Z,31.80
2017-05-06T14:40:14.905Z,31.80
2017-05-06T14:42:43.970Z,31.40
2017-05-06T14:45:13.053Z,31.50
2017-05-06T14:47:42.840Z,31.10
2017-05-06T14:50:11.888Z,30.90
2017-05-06T14:52:40.961Z,30.50
2017-05-06T14:55:10.722Z,30.70
2017-05-06T14:57:39.792Z,31.30
2017-05-06T15:00:08.828Z,32.10
2017-05-06T15:02:38.609Z,31.50
2017-05-06T15:05:07.690Z,31.60
2017-05-06T15:07:36.741Z,31.50
2017-05-06T15:10:06.543Z,30.90
2017-05-06T15:12:36.337Z,31.90
2017-05-06T15:15:05.398Z,32.20
2017-05-06T15:17:34.454Z,30.70
2017-05-06T15:20:04.237Z,31.40
2017-05-06T15:22:33.276Z,30.70
2017-05-06T15:25:02.325Z,30.80
2017-05-06T15:27:31.366Z,30.80
2017-05-06T15:30:00.421Z,30.60
2017-05-06T15:32:29.469Z,30.60
2017-05-06T15:34:58.547Z,30.80
2017-05-06T15:37:27.590Z,29.60
2017-05-06T15:39:56.697Z,29.10
2017-05-06T15:42:25.723Z,28.40
2017-05-06T15:44:54.782Z,28.70
2017-05-06T15:47:23.834Z,28.90
2017-05-06T15:49:52.929Z,29.20
2017-05-06T15:52:21.976Z,28.20
2017-05-06T15:54:51.768Z,27.70
2017-05-06T15:57:20.820Z,27.60
2017-05-06T15:59:49.873Z,27.60
2017-05-06T16:02:19.698Z,27.90
2017-05-06T16:04:49.508Z,27.20
2017-05-06T16:07:19.322Z,27.20
2017-05-06T16:09:49.095Z,27.30
2017-05-06T16:12:18.174Z,27.90
2017-05-06T16:14:47.222Z,27.50
2017-05-06T16:17:17.029Z,27.20
2017-05-06T16:19:46.840Z,26.90
2017-05-06T16:22:15.888Z,26.50
2017-05-06T16:24:44.953Z,26.30
2017-05-06T16:27:14.016Z,26.30
2017-05-06T16:29:43.809Z,26.60
2017-05-06T16:32:12.885Z,27.00
2017-05-06T16:34:41.914Z,26.70
2017-05-06T16:37:10.970Z,26.00
2017-05-06T16:39:40.023Z,25.70
2017-05-06T16:42:09.808Z,25.90
2017-05-06T16:44:38.877Z,25.20
2017-05-06T16:47:07.935Z,24.90
2017-05-06T16:49:36.970Z,24.80
2017-05-06T16:52:06.094Z,24.50
2017-05-06T16:54:35.907Z,24.20
2017-05-06T16:57:05.728Z,24.20
2017-05-06T16:59:35.536Z,23.90
2017-05-06T17:02:05.420Z,23.60
2017-05-06T17:04:34.473Z,23.30
2017-05-06T17:07:03.581Z,22.60
2017-05-06T17:09:32.644Z,22.20
2017-05-06T17:12:02.550Z,21.60
2017-05-06T17:14:32.353Z,21.10
2017-05-06T17:17:02.146Z,20.50
2017-05-06T17:19:31.213Z,20.50
2017-05-06T17:22:00.250Z,20.30
2017-05-06T17:24:30.058Z,20.00
2017-05-06T17:26:59.097Z,19.90
2017-05-06T17:29:28.247Z,19.80
2017-05-06T17:31:57.310Z,19.80
2017-05-06T17:34:26.423Z,19.80
2017-05-06T17:36:55.454Z,19.80
2017-05-06T17:39:24.521Z,19.70
2017-05-06T17:41:53.558Z,19.70
2017-05-06T17:44:22.733Z,19.60
2017-05-06T17:46:51.768Z,19.70
2017-05-06T17:49:20.824Z,19.40
2017-05-06T17:51:50.595Z,19.60
2017-05-06T17:54:19.653Z,19.50
2017-05-06T17:56:48.702Z,19.80
2017-05-06T17:59:17.774Z,19.70
2017-05-06T18:01:46.822Z,19.50
2017-05-06T18:04:15.857Z,19.40
2017-05-06T18:06:44.925Z,19.50
2017-05-06T18:09:14.000Z,19.50
2017-05-06T18:11:43.793Z,19.60
2017-05-06T18:14:12.906Z,19.10
2017-05-06T18:16:42.796Z,19.40
2017-05-06T18:19:12.633Z,18.90
2017-05-06T18:21:42.424Z,19.20
2017-05-06T18:24:12.213Z,18.80
2017-05-06T18:26:41.279Z,18.80
2017-05-06T18:29:10.319Z,18.50
2017-05-06T18:31:39.382Z,18.50
2017-05-06T18:34:08.437Z,18.80
2017-05-06T18:36:37.512Z,18.60
2017-05-06T18:39:07.309Z,18.60
2017-05-06T18:41:36.362Z,18.20
2017-05-06T18:44:05.519Z,18.30
2017-05-06T18:46:34.727Z,18.20
2017-05-06T18:49:04.542Z,18.30
2017-05-06T18:51:33.600Z,17.90
2017-05-06T18:54:02.646Z,18.00
2017-05-06T18:56:31.722Z,18.10
2017-05-06T18:59:00.774Z,18.00
2017-05-06T19:01:29.837Z,18.00
2017-05-06T19:03:58.886Z,17.90
2017-05-06T19:06:28.681Z,17.90
2017-05-06T19:08:58.044Z,17.80
2017-05-06T19:11:27.100Z,18.00
2017-05-06T19:13:56.897Z,17.80
2017-05-06T19:16:26.702Z,17.90
2017-05-06T19:18:55.749Z,17.90
2017-05-06T19:21:24.810Z,17.60
2017-05-06T19:23:54.600Z,17.60
2017-05-06T19:26:23.665Z,17.60
2017-05-06T19:28:52.725Z,17.80
2017-05-06T19:31:22.510Z,17.70
2017-05-06T19:33:51.626Z,17.80
2017-05-06T19:36:21.524Z,17.60
2017-05-06T19:38:50.564Z,17.20
2017-05-06T19:41:19.637Z,17.70
2017-05-06T19:43:48.719Z,17.30
2017-05-06T19:46:18.511Z,17.30
2017-05-06T19:48:47.570Z,17.30
2017-05-06T19:51:16.649Z,17.10
2017-05-06T19:53:45.688Z,17.10
2017-05-06T19:56:14.854Z,17.00
2017-05-06T19:58:43.918Z,17.20
2017-05-06T20:01:12.998Z,16.80
2017-05-06T20:03:42.832Z,17.00
2017-05-06T20:06:11.882Z,16.60
2017-05-06T20:08:41.005Z,17.00
2017-05-06T20:11:10.054Z,16.90
2017-05-06T20:13:39.097Z,16.60
2017-05-06T20:16:08.355Z,16.50
2017-05-06T20:18:37.415Z,16.50
2017-05-06T20:21:06.450Z,16.50
2017-05-06T20:23:35.544Z,16.10
2017-05-06T20:26:04.645Z,16.40
2017-05-06T20:28:33.861Z,16.10
2017-05-06T20:31:03.784Z,16.10
2017-05-06T20:33:32.850Z,16.30
2017-05-06T20:36:01.910Z,16.00
2017-05-06T20:38:30.983Z,16.10
2017-05-06T20:41:00.225Z,15.90
2017-05-06T20:43:29.269Z,15.90
2017-05-06T20:45:58.365Z,15.80
2017-05-06T20:48:27.428Z,15.80
2017-05-06T20:50:56.477Z,15.60
2017-05-06T20:53:25.546Z,15.50
2017-05-06T20:55:54.609Z,15.50
2017-05-06T20:58:23.657Z,15.80
2017-05-06T21:00:52.710Z,15.40
2017-05-06T21:03:22.505Z,15.40
2017-05-06T21:05:52.308Z,15.50
2017-05-06T21:08:21.397Z,15.50
2017-05-06T21:10:50.437Z,15.40
2017-05-06T21:13:19.572Z,15.20
2017-05-06T21:15:48.626Z,15.40
2017-05-06T21:18:17.693Z,15.40
2017-05-06T21:20:47.490Z,15.40
2017-05-06T21:23:16.543Z,15.40
2017-05-06T21:25:45.585Z,15.30
2017-05-06T21:28:16.285Z,15.20
2017-05-06T21:30:45.321Z,15.30
2017-05-06T21:33:15.120Z,15.30
2017-05-06T21:35:44.167Z,15.20
2017-05-06T21:38:13.235Z,15.20
2017-05-06T21:40:43.012Z,15.20
2017-05-06T21:43:12.109Z,14.70
2017-05-06T21:45:41.151Z,15.20
2017-05-06T21:48:10.190Z,15.30
2017-05-06T21:50:39.266Z,15.10
2017-05-06T21:53:08.306Z,14.70
2017-05-06T21:55:38.141Z,14.90
2017-05-06T21:58:07.233Z,14.80
2017-05-06T22:00:37.009Z,14.70
2017-05-06T22:03:06.058Z,14.80
2017-05-06T22:05:35.122Z,14.80
2017-05-06T22:08:04.897Z,14.80
2017-05-06T22:10:33.945Z,14.70
2017-05-06T22:13:02.986Z,14.90
2017-05-06T22:15:32.072Z,14.80
2017-05-06T22:18:01.216Z,14.80
2017-05-06T22:20:30.286Z,14.30
2017-05-06T22:22:59.361Z,14.70
2017-05-06T22:25:28.398Z,14.50
2017-05-06T22:27:57.491Z,14.80
2017-05-06T22:30:27.275Z,14.30
2017-05-06T22:32:56.341Z,14.10
2017-05-06T22:35:25.385Z,14.20
2017-05-06T22:37:55.178Z,14.40
2017-05-06T22:40:24.274Z,14.30
2017-05-06T22:42:54.076Z,14.20
2017-05-06T22:45:23.118Z,14.30
2017-05-06T22:47:52.229Z,14.10
2017-05-06T22:50:21.262Z,14.10
2017-05-06T22:52:50.321Z,14.30
2017-05-06T22:55:19.365Z,14.00
2017-05-06T22:57:49.178Z,14.10
2017-05-06T23:00:18.971Z,14.30
2017-05-06T23:02:48.025Z,14.00
2017-05-06T23:05:17.088Z,14.00
2017-05-06T23:07:46.932Z,14.20
2017-05-06T23:10:16.023Z,14.20
2017-05-06T23:12:45.058Z,13.70
2017-05-06T23:15:14.124Z,14.20
2017-05-06T23:17:43.166Z,13.70
2017-05-06T23:20:12.977Z,13.60
2017-05-06T23:22:42.011Z,13.90
2017-05-06T23:25:11.085Z,13.80
2017-05-06T23:27:40.862Z,13.70
2017-05-06T23:30:09.945Z,13.60
2017-05-06T23:32:39.050Z,13.70
2017-05-06T23:35:08.119Z,13.70
2017-05-06T23:37:37.153Z,13.50
2017-05-06T23:40:06.225Z,13.60
2017-05-06T23:42:35.324Z,13.60
2017-05-06T23:45:04.374Z,13.30
2017-05-06T23:47:33.433Z,13.30
2017-05-06T23:50:03.229Z,13.20
2017-05-06T23:52:32.285Z,13.30
2017-05-06T23:55:01.330Z,13.00
2017-05-06T23:57:31.225Z,13.30
